Fargo (FAR/KFAR)

Map

Destinations

Information

Location
Fargo, ND
Local Time
18:24 / 6:24 pm
GMT Time
22:24 / 10:24 pm
Gates
Unassigned
No FAA reported delays
METAR KFAR 272153Z 34006KT 10SM FEW026 14/07 A2996 RMK AO2 SLP152 T01390072
TAF KFAR 271730Z 2718/2818 02003KT P6SM SCT250 FM280200 03005KT P6SM FEW008 FM281000 04004KT 2SM BR SCT003 FM281400 04004KT P6SM SCT250
  • No charts available